createdAt,value
2019-03-31T00:00:16.361Z,6.87
2019-03-31T00:02:45.266Z,7.77
2019-03-31T00:05:14.211Z,7.60
2019-03-31T00:07:43.112Z,6.57
2019-03-31T00:10:12.071Z,7.63
2019-03-31T00:12:40.958Z,6.53
2019-03-31T00:15:10.013Z,5.93
2019-03-31T00:17:38.915Z,4.50
2019-03-31T00:20:07.976Z,4.40
2019-03-31T00:22:36.880Z,3.47
2019-03-31T00:25:06.584Z,3.37
2019-03-31T00:27:35.548Z,3.83
2019-03-31T00:30:05.060Z,3.40
2019-03-31T00:32:34.021Z,3.53
2019-03-31T00:35:02.933Z,3.47
2019-03-31T00:37:31.863Z,2.73
2019-03-31T00:40:00.772Z,3.10
2019-03-31T00:42:30.089Z,2.50
2019-03-31T00:44:59.341Z,2.40
2019-03-31T00:47:28.299Z,2.10
2019-03-31T00:49:57.191Z,2.70
2019-03-31T00:52:26.133Z,2.20
2019-03-31T00:54:55.057Z,1.80
2019-03-31T00:57:24.012Z,1.83
2019-03-31T00:59:52.925Z,1.80
2019-03-31T01:02:23.935Z,1.37
2019-03-31T01:04:52.838Z,1.60
2019-03-31T01:07:23.987Z,1.30
2019-03-31T01:09:55.008Z,1.57
2019-03-31T01:12:25.616Z,1.77
2019-03-31T01:14:54.522Z,1.40
2019-03-31T01:17:23.573Z,1.73
2019-03-31T01:19:53.482Z,1.70
2019-03-31T01:22:22.448Z,1.50
2019-03-31T01:24:51.343Z,1.87
2019-03-31T01:27:21.000Z,1.80
2019-03-31T01:29:49.898Z,1.97
2019-03-31T01:32:18.835Z,1.37
2019-03-31T01:34:47.751Z,2.17
2019-03-31T01:37:19.942Z,2.00
2019-03-31T01:39:47.747Z,1.67
2019-03-31T01:42:16.695Z,1.90
2019-03-31T01:44:45.592Z,2.50
2019-03-31T01:47:14.529Z,2.07
2019-03-31T01:49:43.474Z,2.80
2019-03-31T01:52:12.439Z,2.00
2019-03-31T01:54:41.339Z,1.97
2019-03-31T01:57:10.246Z,1.97
2019-03-31T01:59:39.200Z,2.00
2019-03-31T02:02:09.678Z,2.17
2019-03-31T02:04:38.623Z,1.80
2019-03-31T02:07:08.230Z,2.10
2019-03-31T02:09:37.580Z,2.23
2019-03-31T02:12:06.482Z,2.57
2019-03-31T02:14:35.419Z,2.40
2019-03-31T02:17:04.335Z,2.40
2019-03-31T02:19:33.274Z,2.97
2019-03-31T02:22:02.173Z,3.20
2019-03-31T02:24:31.122Z,2.50
2019-03-31T02:27:00.500Z,2.47
2019-03-31T02:29:29.467Z,2.80
2019-03-31T02:31:58.375Z,2.60
2019-03-31T02:34:27.324Z,2.93
2019-03-31T02:36:56.224Z,2.67
2019-03-31T02:39:25.163Z,2.67
2019-03-31T02:41:54.066Z,2.80
2019-03-31T02:44:23.024Z,2.40
2019-03-31T02:46:51.910Z,2.30
2019-03-31T02:49:20.866Z,3.00
2019-03-31T02:51:49.767Z,2.20
2019-03-31T02:54:18.677Z,2.83
2019-03-31T02:56:47.829Z,2.87
2019-03-31T02:59:18.640Z,3.07
2019-03-31T03:01:48.379Z,2.83
2019-03-31T03:04:18.858Z,3.13
2019-03-31T03:06:50.172Z,3.30
2019-03-31T03:09:20.748Z,2.70
2019-03-31T03:11:51.296Z,2.70
2019-03-31T03:14:21.510Z,2.90
2019-03-31T03:16:50.439Z,3.27
2019-03-31T03:19:19.356Z,3.67
2019-03-31T03:21:48.288Z,2.63
2019-03-31T03:24:17.189Z,3.50
2019-03-31T03:26:46.136Z,3.00
2019-03-31T03:29:15.133Z,3.53
2019-03-31T03:31:44.093Z,4.27
2019-03-31T03:34:12.991Z,3.30
2019-03-31T03:36:43.613Z,3.10
2019-03-31T03:39:12.644Z,3.17
2019-03-31T03:41:41.694Z,3.43
2019-03-31T03:44:10.600Z,3.60
2019-03-31T03:46:39.545Z,3.90
2019-03-31T03:49:08.485Z,4.00
2019-03-31T03:51:37.501Z,3.97
2019-03-31T03:54:06.406Z,2.80
2019-03-31T03:56:35.365Z,3.53
2019-03-31T03:59:04.273Z,2.97
2019-03-31T04:01:33.541Z,3.93
2019-03-31T04:04:02.440Z,3.53
2019-03-31T04:06:31.388Z,2.97
2019-03-31T04:09:00.290Z,3.33
2019-03-31T04:11:29.667Z,2.93
2019-03-31T04:13:58.747Z,3.77
2019-03-31T04:16:27.716Z,3.67
2019-03-31T04:18:56.809Z,3.30
2019-03-31T04:21:26.282Z,3.37
2019-03-31T04:23:55.177Z,3.60
2019-03-31T04:26:24.123Z,3.90
2019-03-31T04:28:53.032Z,3.30
2019-03-31T04:31:21.971Z,3.10
2019-03-31T04:33:52.791Z,3.97
2019-03-31T04:36:21.469Z,3.80
2019-03-31T04:38:50.396Z,3.07
2019-03-31T04:41:19.447Z,3.30
2019-03-31T04:43:48.366Z,3.67
2019-03-31T04:46:17.255Z,3.33
2019-03-31T04:48:47.174Z,3.47
2019-03-31T04:51:16.462Z,3.30
2019-03-31T04:53:45.467Z,3.17
2019-03-31T04:56:14.379Z,2.87
2019-03-31T04:58:43.334Z,3.70
2019-03-31T05:01:12.258Z,4.00
2019-03-31T05:03:41.200Z,4.00
2019-03-31T05:06:10.137Z,3.33
2019-03-31T05:08:39.092Z,3.63
2019-03-31T05:11:08.018Z,3.53
2019-03-31T05:13:36.960Z,3.07
2019-03-31T05:16:06.009Z,3.37
2019-03-31T05:18:34.941Z,3.40
2019-03-31T05:21:03.845Z,3.10
2019-03-31T05:23:32.789Z,3.60
2019-03-31T05:26:01.686Z,3.13
2019-03-31T05:28:30.637Z,2.70
2019-03-31T05:30:59.547Z,3.00
2019-03-31T05:33:28.491Z,3.07
2019-03-31T05:35:57.398Z,3.37
2019-03-31T05:38:26.343Z,2.90
2019-03-31T05:40:55.247Z,3.83
2019-03-31T05:43:24.192Z,3.57
2019-03-31T05:45:53.095Z,2.67
2019-03-31T05:48:22.040Z,3.37
2019-03-31T05:50:50.978Z,3.20
2019-03-31T05:53:19.889Z,2.47
2019-03-31T05:55:48.830Z,2.93
2019-03-31T05:58:17.726Z,2.67
2019-03-31T06:00:46.772Z,2.87
2019-03-31T06:03:15.686Z,2.20
2019-03-31T06:05:44.627Z,2.67
2019-03-31T06:08:13.534Z,2.67
2019-03-31T06:10:42.476Z,2.33
2019-03-31T06:13:11.380Z,3.03
2019-03-31T06:15:40.319Z,3.67
2019-03-31T06:18:09.232Z,2.37
2019-03-31T06:20:38.183Z,2.97
2019-03-31T06:23:07.097Z,2.97
2019-03-31T06:25:36.146Z,2.67
2019-03-31T06:28:05.141Z,2.73
2019-03-31T06:30:34.098Z,2.90
2019-03-31T06:33:03.009Z,3.17
2019-03-31T06:35:31.965Z,2.57
2019-03-31T06:38:00.862Z,2.70
2019-03-31T06:40:29.824Z,1.77
2019-03-31T06:42:58.778Z,2.43
2019-03-31T06:45:27.723Z,2.70
2019-03-31T06:47:56.630Z,3.00
2019-03-31T06:50:25.576Z,2.97
2019-03-31T06:52:54.488Z,2.47
2019-03-31T06:55:23.449Z,2.93
2019-03-31T06:57:52.344Z,2.40
2019-03-31T07:00:21.319Z,2.97
2019-03-31T07:02:50.223Z,2.53
2019-03-31T07:05:19.201Z,2.93
2019-03-31T07:07:48.155Z,2.80
2019-03-31T07:10:19.131Z,3.90
2019-03-31T07:12:48.154Z,2.40
2019-03-31T07:15:17.106Z,2.93
2019-03-31T07:17:46.084Z,2.83
2019-03-31T07:20:16.826Z,2.33
2019-03-31T07:22:46.681Z,2.30
2019-03-31T07:25:16.209Z,2.77
2019-03-31T07:27:45.190Z,2.80
2019-03-31T07:30:21.030Z,2.53
2019-03-31T07:32:49.977Z,2.90
2019-03-31T07:35:19.139Z,2.83
2019-03-31T07:37:48.240Z,3.87
2019-03-31T07:40:19.979Z,3.20
2019-03-31T07:42:51.156Z,2.90
2019-03-31T07:45:20.511Z,3.00
2019-03-31T07:47:49.480Z,2.80
2019-03-31T07:50:19.344Z,3.53
2019-03-31T07:52:48.569Z,2.63
2019-03-31T07:55:17.756Z,3.13
2019-03-31T07:57:46.737Z,3.10
2019-03-31T08:00:23.240Z,3.40
2019-03-31T08:02:52.304Z,2.37
2019-03-31T08:05:32.334Z,1.90
2019-03-31T08:07:51.922Z,2.47
2019-03-31T08:10:21.094Z,2.40
2019-03-31T08:12:50.101Z,2.67
2019-03-31T08:15:19.034Z,3.20
2019-03-31T08:17:48.022Z,2.63
2019-03-31T08:20:18.427Z,2.27
2019-03-31T08:22:47.475Z,2.77
2019-03-31T08:25:17.378Z,2.57
2019-03-31T08:27:46.378Z,2.27
2019-03-31T08:30:16.026Z,2.47
2019-03-31T08:32:45.038Z,2.27
2019-03-31T08:35:15.800Z,2.13
2019-03-31T08:37:44.858Z,2.37
2019-03-31T08:40:15.746Z,2.57
2019-03-31T08:42:44.651Z,2.13
2019-03-31T08:45:13.729Z,2.67
2019-03-31T08:47:42.669Z,2.20
2019-03-31T08:50:13.338Z,2.50
2019-03-31T08:52:42.306Z,2.60
2019-03-31T08:55:11.575Z,2.20
2019-03-31T08:57:40.477Z,2.73
2019-03-31T09:00:12.392Z,2.43
2019-03-31T09:02:41.298Z,2.00
2019-03-31T09:05:10.743Z,2.60
2019-03-31T09:07:41.843Z,2.43
2019-03-31T09:10:10.847Z,2.23
2019-03-31T09:12:39.792Z,2.13
2019-03-31T09:15:11.307Z,2.43
2019-03-31T09:17:40.216Z,2.23
2019-03-31T09:20:09.762Z,2.23
2019-03-31T09:22:38.656Z,1.90
2019-03-31T09:25:08.099Z,2.00
2019-03-31T09:27:37.004Z,1.57
2019-03-31T09:30:08.891Z,2.30
2019-03-31T09:32:37.812Z,1.83
2019-03-31T09:35:10.213Z,1.77
2019-03-31T09:37:39.200Z,2.00
2019-03-31T09:40:09.157Z,2.07
2019-03-31T09:42:38.051Z,1.93
2019-03-31T09:45:08.191Z,1.77
2019-03-31T09:47:38.091Z,2.40
2019-03-31T09:50:17.333Z,2.80
2019-03-31T09:52:45.146Z,2.87
2019-03-31T09:55:14.100Z,1.83
2019-03-31T09:57:43.003Z,1.70
2019-03-31T10:00:14.815Z,2.03
2019-03-31T10:02:43.731Z,2.10
2019-03-31T10:05:12.977Z,1.63
2019-03-31T10:07:41.882Z,2.10
2019-03-31T10:10:13.767Z,2.47
2019-03-31T10:12:42.668Z,1.67
2019-03-31T10:15:11.580Z,1.90
2019-03-31T10:17:40.523Z,2.27
2019-03-31T10:20:09.522Z,1.40
2019-03-31T10:22:38.462Z,1.20
2019-03-31T10:25:07.980Z,1.60
2019-03-31T10:27:36.939Z,1.43
2019-03-31T10:30:08.001Z,1.23
2019-03-31T10:32:36.938Z,1.77
2019-03-31T10:35:08.627Z,1.57
2019-03-31T10:37:37.618Z,1.63
2019-03-31T10:40:08.411Z,1.70
2019-03-31T10:42:37.356Z,1.63
2019-03-31T10:45:08.233Z,1.57
2019-03-31T10:47:37.180Z,1.43
2019-03-31T10:50:07.835Z,1.43
2019-03-31T10:52:36.979Z,1.50
2019-03-31T10:55:07.177Z,1.47
2019-03-31T10:57:36.127Z,1.57
2019-03-31T11:00:07.019Z,1.70
2019-03-31T11:02:36.062Z,1.23
2019-03-31T11:05:07.179Z,1.23
2019-03-31T11:07:36.360Z,1.70
2019-03-31T11:10:08.683Z,1.00
2019-03-31T11:12:37.646Z,1.70
2019-03-31T11:15:09.669Z,1.50
2019-03-31T11:17:38.660Z,1.53
2019-03-31T11:20:08.020Z,1.90
2019-03-31T11:22:45.739Z,1.30
2019-03-31T11:25:21.040Z,1.50
2019-03-31T11:27:45.331Z,1.17
2019-03-31T11:30:14.867Z,1.87
2019-03-31T11:32:52.363Z,1.50
2019-03-31T11:35:18.262Z,1.13
2019-03-31T11:37:47.301Z,1.40
2019-03-31T11:40:16.784Z,1.00
2019-03-31T11:42:45.883Z,1.10
2019-03-31T11:45:14.971Z,1.10
2019-03-31T11:47:43.933Z,1.43
2019-03-31T11:50:13.612Z,1.30
2019-03-31T11:52:44.013Z,1.10
2019-03-31T11:55:13.522Z,1.30
2019-03-31T11:57:44.515Z,1.10
2019-03-31T12:00:15.447Z,1.40
2019-03-31T12:02:46.269Z,1.10
2019-03-31T12:05:17.796Z,1.30
2019-03-31T12:07:47.536Z,1.10
2019-03-31T12:10:19.623Z,1.20
2019-03-31T12:12:47.169Z,1.40
2019-03-31T12:15:16.218Z,1.40
2019-03-31T12:17:47.151Z,1.27
2019-03-31T12:20:18.720Z,0.97
2019-03-31T12:22:47.825Z,1.60
2019-03-31T12:25:19.650Z,1.17
2019-03-31T12:27:47.924Z,1.37
2019-03-31T12:30:19.810Z,1.33
2019-03-31T12:32:48.712Z,1.43
2019-03-31T12:35:17.671Z,1.20
2019-03-31T12:37:46.577Z,1.23
2019-03-31T12:40:30.464Z,1.33
2019-03-31T12:43:02.067Z,1.33
2019-03-31T12:45:32.463Z,1.73
2019-03-31T12:48:01.659Z,1.33
2019-03-31T12:50:30.835Z,1.23
2019-03-31T12:52:59.769Z,1.40
2019-03-31T12:55:28.726Z,1.53
2019-03-31T12:57:57.745Z,1.03
2019-03-31T13:00:26.677Z,1.30
2019-03-31T13:02:55.598Z,1.50
2019-03-31T13:05:24.563Z,1.20
2019-03-31T13:07:56.575Z,1.20
2019-03-31T13:10:24.048Z,1.40
2019-03-31T13:12:52.951Z,1.43
2019-03-31T13:15:21.892Z,1.30
2019-03-31T13:17:50.804Z,1.30
2019-03-31T13:20:19.747Z,1.20
2019-03-31T13:22:48.654Z,1.20
2019-03-31T13:25:17.628Z,1.63
2019-03-31T13:27:46.526Z,1.47
2019-03-31T13:30:15.676Z,1.20
2019-03-31T13:32:44.938Z,1.40
2019-03-31T13:35:14.082Z,1.40
2019-03-31T13:37:42.983Z,1.33
2019-03-31T13:40:11.934Z,1.30
2019-03-31T13:42:40.975Z,1.60
2019-03-31T13:45:10.136Z,1.30
2019-03-31T13:47:39.028Z,1.43
2019-03-31T13:50:08.781Z,1.50
2019-03-31T13:52:37.720Z,1.60
2019-03-31T13:55:08.335Z,1.37
2019-03-31T13:57:38.174Z,1.20
2019-03-31T14:00:10.799Z,1.60
2019-03-31T14:02:40.542Z,1.50
2019-03-31T14:05:09.753Z,1.40
2019-03-31T14:07:38.690Z,1.57
2019-03-31T14:10:09.791Z,1.63
2019-03-31T14:12:38.747Z,1.53
2019-03-31T14:15:18.605Z,1.60
2019-03-31T14:17:38.662Z,1.50
2019-03-31T14:20:08.172Z,1.33
2019-03-31T14:22:37.140Z,1.30
2019-03-31T14:25:06.867Z,1.10
2019-03-31T14:27:35.828Z,1.20
2019-03-31T14:30:07.226Z,1.30
2019-03-31T14:32:36.254Z,1.40
2019-03-31T14:35:06.190Z,1.63
2019-03-31T14:37:36.381Z,1.30
2019-03-31T14:40:05.836Z,1.50
2019-03-31T14:42:34.824Z,1.70
2019-03-31T14:45:04.250Z,1.73
2019-03-31T14:47:33.245Z,2.10
2019-03-31T14:50:03.718Z,1.47
2019-03-31T14:52:32.658Z,1.33
2019-03-31T14:55:01.598Z,1.50
2019-03-31T14:57:30.576Z,1.83
2019-03-31T15:00:13.614Z,1.40
2019-03-31T15:02:30.413Z,1.70
2019-03-31T15:04:59.431Z,1.30
2019-03-31T15:07:28.371Z,1.60
2019-03-31T15:09:57.269Z,1.83
2019-03-31T15:12:26.414Z,1.43
2019-03-31T15:14:55.349Z,1.80
2019-03-31T15:17:26.035Z,1.67
2019-03-31T15:19:57.359Z,1.67
2019-03-31T15:22:26.753Z,1.80
2019-03-31T15:24:56.293Z,2.03
2019-03-31T15:27:25.242Z,1.93
2019-03-31T15:29:55.564Z,1.70
2019-03-31T15:32:24.505Z,1.80
2019-03-31T15:34:53.405Z,1.97
2019-03-31T15:37:22.307Z,2.07
2019-03-31T15:39:51.259Z,1.80
2019-03-31T15:42:20.154Z,1.77
2019-03-31T15:44:49.108Z,1.60
2019-03-31T15:47:18.019Z,1.87
2019-03-31T15:49:46.962Z,1.80
2019-03-31T15:52:16.804Z,1.63
2019-03-31T15:54:45.752Z,1.57
2019-03-31T15:57:14.650Z,1.70
2019-03-31T15:59:53.566Z,1.63
2019-03-31T16:02:24.239Z,1.60
2019-03-31T16:04:53.188Z,1.57
2019-03-31T16:07:22.093Z,1.90
2019-03-31T16:09:51.081Z,1.50
2019-03-31T16:12:20.053Z,2.17
2019-03-31T16:14:48.981Z,1.63
2019-03-31T16:17:17.897Z,1.27
2019-03-31T16:19:46.836Z,2.13
2019-03-31T16:22:15.739Z,1.77
2019-03-31T16:24:49.071Z,2.30
2019-03-31T16:27:17.976Z,1.63
2019-03-31T16:29:46.923Z,1.77
2019-03-31T16:32:15.820Z,1.30
2019-03-31T16:34:44.766Z,1.57
2019-03-31T16:37:13.677Z,1.87
2019-03-31T16:39:42.638Z,1.80
2019-03-31T16:42:11.543Z,1.57
2019-03-31T16:44:40.522Z,1.60
2019-03-31T16:47:09.433Z,1.60
2019-03-31T16:49:38.384Z,1.37
2019-03-31T16:52:07.312Z,1.40
2019-03-31T16:54:36.238Z,1.60
2019-03-31T16:57:05.247Z,1.43
2019-03-31T16:59:34.196Z,1.60
2019-03-31T17:02:03.130Z,1.40
2019-03-31T17:04:32.029Z,1.60
2019-03-31T17:07:00.972Z,1.20
2019-03-31T17:09:30.577Z,1.57
2019-03-31T17:11:59.795Z,1.40
2019-03-31T17:14:30.245Z,1.43
2019-03-31T17:16:59.257Z,1.30
2019-03-31T17:19:28.157Z,1.97
2019-03-31T17:21:59.686Z,1.70
2019-03-31T17:24:27.654Z,1.60
2019-03-31T17:26:56.597Z,1.40
2019-03-31T17:29:25.535Z,1.30
2019-03-31T17:31:54.491Z,1.13
2019-03-31T17:34:23.446Z,1.27
2019-03-31T17:36:52.373Z,1.43
2019-03-31T17:39:21.399Z,1.77
2019-03-31T17:41:50.361Z,1.47
2019-03-31T17:44:19.297Z,1.50
2019-03-31T17:46:48.246Z,1.20
2019-03-31T17:49:17.142Z,3.00
2019-03-31T17:51:46.094Z,1.60
2019-03-31T17:54:15.552Z,1.57
2019-03-31T17:56:45.353Z,1.50
2019-03-31T17:59:14.342Z,1.30
2019-03-31T18:01:43.382Z,1.27
2019-03-31T18:04:12.465Z,1.17
2019-03-31T18:06:41.615Z,1.57
2019-03-31T18:09:10.777Z,1.40
2019-03-31T18:11:39.913Z,1.63
2019-03-31T18:14:09.108Z,1.33
2019-03-31T18:16:38.171Z,1.37
2019-03-31T18:19:08.196Z,1.50
2019-03-31T18:21:37.179Z,1.63
2019-03-31T18:24:06.086Z,1.30
2019-03-31T18:26:35.086Z,1.30
2019-03-31T18:29:03.982Z,1.30
2019-03-31T18:31:32.977Z,1.50
2019-03-31T18:34:01.875Z,1.40
2019-03-31T18:36:36.975Z,1.23
2019-03-31T18:39:01.518Z,1.40
2019-03-31T18:41:30.456Z,1.77
2019-03-31T18:43:59.422Z,1.20
2019-03-31T18:46:28.398Z,1.37
2019-03-31T18:48:57.357Z,1.57
2019-03-31T18:51:26.352Z,1.43
2019-03-31T18:54:00.127Z,1.20
2019-03-31T18:56:48.692Z,1.30
2019-03-31T18:59:35.370Z,1.50
2019-03-31T19:02:25.271Z,1.57
2019-03-31T19:04:59.024Z,1.27
2019-03-31T19:07:29.898Z,1.53
2019-03-31T19:10:03.332Z,1.80
2019-03-31T19:12:49.785Z,1.60
2019-03-31T19:15:23.398Z,1.30
2019-03-31T19:18:03.253Z,1.70
2019-03-31T19:20:52.108Z,1.30
2019-03-31T19:23:39.474Z,1.20
2019-03-31T19:26:13.097Z,1.53
2019-03-31T19:29:02.852Z,1.70
2019-03-31T19:31:33.811Z,1.30
2019-03-31T19:34:04.402Z,1.20
2019-03-31T19:36:37.600Z,1.30
2019-03-31T19:39:26.898Z,1.47
2019-03-31T19:42:13.371Z,2.00
2019-03-31T19:44:47.048Z,2.13
2019-03-31T19:47:29.942Z,1.60
2019-03-31T19:50:16.984Z,1.63
2019-03-31T19:52:49.963Z,1.83
2019-03-31T19:55:32.221Z,2.00
2019-03-31T19:58:11.947Z,1.20
2019-03-31T20:00:42.474Z,1.40
2019-03-31T20:03:16.162Z,1.60
2019-03-31T20:05:46.845Z,1.83
2019-03-31T20:08:33.736Z,1.33
2019-03-31T20:11:04.254Z,1.90
2019-03-31T20:13:37.778Z,1.27
2019-03-31T20:16:11.200Z,2.37
2019-03-31T20:18:41.676Z,1.40
2019-03-31T20:21:32.305Z,1.23
2019-03-31T20:24:09.542Z,1.70
2019-03-31T20:26:49.262Z,2.07
2019-03-31T20:29:19.744Z,1.67
2019-03-31T20:31:56.544Z,1.67
2019-03-31T20:34:27.029Z,1.50
2019-03-31T20:37:12.566Z,1.47
2019-03-31T20:39:56.142Z,2.27
2019-03-31T20:42:15.586Z,1.73
2019-03-31T20:44:44.516Z,1.50
2019-03-31T20:47:13.451Z,1.83
2019-03-31T20:49:42.351Z,2.13
2019-03-31T20:52:11.304Z,2.03
2019-03-31T20:54:40.215Z,1.53
2019-03-31T20:57:10.736Z,1.73
2019-03-31T20:59:39.746Z,1.67
2019-03-31T21:02:08.711Z,1.30
2019-03-31T21:04:37.623Z,1.80
2019-03-31T21:07:09.825Z,1.50
2019-03-31T21:09:44.828Z,1.53
2019-03-31T21:12:07.713Z,1.50
2019-03-31T21:14:36.615Z,1.80
2019-03-31T21:17:05.585Z,2.33
2019-03-31T21:19:34.498Z,1.47
2019-03-31T21:22:04.383Z,1.80
2019-03-31T21:24:33.338Z,1.60
2019-03-31T21:27:02.263Z,1.90
2019-03-31T21:29:31.229Z,1.67
2019-03-31T21:32:00.111Z,1.47
2019-03-31T21:34:29.064Z,1.87
2019-03-31T21:36:57.977Z,1.40
2019-03-31T21:39:26.925Z,1.40
2019-03-31T21:41:55.827Z,1.37
2019-03-31T21:44:24.781Z,1.40
2019-03-31T21:46:55.954Z,1.60
2019-03-31T21:49:24.364Z,1.40
2019-03-31T21:51:53.276Z,1.60
2019-03-31T21:54:22.227Z,1.30
2019-03-31T21:56:51.134Z,1.63
2019-03-31T21:59:20.079Z,1.37
2019-03-31T22:01:49.082Z,1.60
2019-03-31T22:04:18.046Z,1.73
2019-03-31T22:06:46.952Z,1.53
2019-03-31T22:09:15.903Z,1.67
2019-03-31T22:11:44.818Z,1.43
2019-03-31T22:14:13.768Z,1.67
2019-03-31T22:16:42.678Z,1.60
2019-03-31T22:19:11.663Z,1.80
2019-03-31T22:21:40.552Z,2.07
2019-03-31T22:24:09.494Z,1.50
2019-03-31T22:26:38.445Z,1.57
2019-03-31T22:29:07.450Z,1.50
2019-03-31T22:31:36.377Z,1.70
2019-03-31T22:34:05.320Z,2.03
2019-03-31T22:36:34.230Z,1.63
2019-03-31T22:39:03.208Z,1.73
2019-03-31T22:41:32.290Z,1.50
2019-03-31T22:44:01.194Z,1.23
2019-03-31T22:46:30.164Z,1.87
2019-03-31T22:48:59.065Z,1.90
2019-03-31T22:51:28.038Z,1.67
2019-03-31T22:53:56.942Z,1.83
2019-03-31T22:56:25.915Z,1.50
2019-03-31T22:58:54.819Z,1.50
2019-03-31T23:01:23.776Z,1.50
2019-03-31T23:03:52.685Z,1.90
2019-03-31T23:06:21.623Z,1.50
2019-03-31T23:08:50.523Z,1.83
2019-03-31T23:11:19.470Z,1.60
2019-03-31T23:13:48.376Z,1.13
2019-03-31T23:16:17.338Z,1.40
2019-03-31T23:18:46.218Z,1.90
2019-03-31T23:21:15.167Z,1.93
2019-03-31T23:23:44.066Z,1.60
2019-03-31T23:26:13.010Z,1.60
2019-03-31T23:28:47.656Z,1.80
2019-03-31T23:31:17.454Z,1.53
2019-03-31T23:33:46.370Z,1.20
2019-03-31T23:36:15.314Z,1.80
2019-03-31T23:38:44.221Z,1.47
2019-03-31T23:41:13.172Z,1.93
2019-03-31T23:43:42.078Z,1.90
2019-03-31T23:46:10.995Z,2.20
2019-03-31T23:48:39.927Z,2.60
2019-03-31T23:51:08.837Z,2.10
2019-03-31T23:53:37.779Z,2.07
2019-03-31T23:56:06.688Z,2.13
2019-03-31T23:58:35.626Z,2.17
